Pan Pride — 3FXC5 — position and weather

sailwx.info

Track history (hours):
 
Tides and Currents Weather Stations Pressure Air Temp Water Temp Dewpoint Dewpoint Depression Visibility Wind Speed Wind Dir Waves Ship Positions

Pan Pride

Last reported at 2018-Jan-05 15:39 UTC. Time now 2018-Jan-24 06:02 UTC.
Position N 41°14' E 140°08'.
Warning: this ship's position is 18 days out of date.

Length 190 m; draft 12.8 m.

Type: Cargo ship. MMSI: 371572000.

Date/timePositionNaut miles runAvg speedWind from/ knotsBaromVisibWave heightAir tempDewpointWater temp
2018-Jan-05 15:39N 41°14' E 140°08'2 9.8
2018-Jan-05 15:26N 41°15' E 140°11'4 9.5
2018-Jan-05 15:00N 41°18' E 140°15'4 8.8
2018-Jan-05 14:30N 41°20' E 140°20'5 9.5
2018-Jan-05 14:00N 41°23' E 140°25'5 9.5
2018-Jan-05 13:30N 41°26' E 140°30'510.4
2018-Jan-05 13:00N 41°29' E 140°35'611.4
2018-Jan-05 12:30N 41°32' E 140°42'510.9
2018-Jan-05 12:00N 41°35' E 140°48'611.3
2018-Jan-05 11:30N 41°38' E 140°54'510.6
2018-Jan-05 11:00N 41°39' E 141°01'611.3
2018-Jan-05 10:30N 41°40' E 141°09'611.0
2018-Jan-05 09:59N 41°41' E 141°16'611.3
2018-Jan-05 09:30N 41°41' E 141°24'510.7
2018-Jan-05 09:00N 41°42' E 141°31'510.3
2018-Jan-05 08:30N 41°42' E 141°38'510.4
2018-Jan-05 08:00N 41°42' E 141°45'  
Track history (hours):
 
Tides and Currents Weather Stations Pressure Air Temp Water Temp Dewpoint Dewpoint Depression Visibility Wind Speed Wind Dir Waves Ship Positions

Pan Pride

Last reported at 2018-Jan-05 15:39 UTC. Time now 2018-Jan-24 06:02 UTC.
Position N 41°14' E 140°08'.
Warning: this ship's position is 18 days out of date.

Length 190 m; draft 12.8 m.

Type: Cargo ship. MMSI: 371572000.

Date/timePositionNaut miles runAvg speedWind from/ knotsBaromVisibWave heightAir tempDewpointWater temp
2018-Jan-05 15:39N 41°14' E 140°08'2 9.8
2018-Jan-05 15:26N 41°15' E 140°11'4 9.5
2018-Jan-05 15:00N 41°18' E 140°15'4 8.8
2018-Jan-05 14:30N 41°20' E 140°20'5 9.5
2018-Jan-05 14:00N 41°23' E 140°25'5 9.5
2018-Jan-05 13:30N 41°26' E 140°30'510.4
2018-Jan-05 13:00N 41°29' E 140°35'611.4
2018-Jan-05 12:30N 41°32' E 140°42'510.9
2018-Jan-05 12:00N 41°35' E 140°48'611.3
2018-Jan-05 11:30N 41°38' E 140°54'510.6
2018-Jan-05 11:00N 41°39' E 141°01'611.3
2018-Jan-05 10:30N 41°40' E 141°09'611.0
2018-Jan-05 09:59N 41°41' E 141°16'611.3
2018-Jan-05 09:30N 41°41' E 141°24'510.7
2018-Jan-05 09:00N 41°42' E 141°31'510.3
2018-Jan-05 08:30N 41°42' E 141°38'510.4
2018-Jan-05 08:00N 41°42' E 141°45'  

Dump ship's entire track history